Elk City, Oklahoma
Current Conditions -  °F | °C
As of 2:55 AM on Thursday 23 Oct 2014 (Local Time) from KELK Reporting Station
Haze Haze  
Wind Chill: 57°   Ceiling: 3700
Heat Index: 57°   Visibility: 5mi
Dew Point: 57°   Wind: 3mph
Humidity: 100%   Direction: 190°S
Pressure: 30.15"   Gusts: NA
Location:  35.41°N, 99.42°W
Report Text: KELK 230755Z AUTO 19003KT 5SM BR BKN037 14/14 A3015 RMK AO2
Loading
Personal Weather Stations






























Interactive Weather Map
Tropical Storm Tracking
New forecast layout! Learn more

10-Day Weather Forecast

Advertisements
Track Severe Weather on mobile